createdAt,value
2022-08-03T00:01:01.395Z,26.19
2022-08-03T00:03:29.731Z,26.13
2022-08-03T00:06:04.411Z,26.15
2022-08-03T00:08:33.285Z,26.19
2022-08-03T00:11:08.990Z,26.10
2022-08-03T00:13:37.350Z,26.01
2022-08-03T00:16:05.953Z,25.97
2022-08-03T00:18:34.332Z,25.91
2022-08-03T00:21:03.044Z,25.86
2022-08-03T00:23:51.293Z,25.76
2022-08-03T00:26:46.350Z,25.79
2022-08-03T00:29:30.466Z,25.80
2022-08-03T00:32:01.367Z,25.80
2022-08-03T00:34:57.367Z,25.79
2022-08-03T00:37:40.887Z,25.75
2022-08-03T00:40:32.845Z,25.71
2022-08-03T00:43:03.080Z,25.69
2022-08-03T00:45:34.195Z,25.66
2022-08-03T00:48:03.218Z,25.65
2022-08-03T00:50:35.770Z,25.67
2022-08-03T00:53:06.513Z,25.64
2022-08-03T00:55:34.715Z,25.64
2022-08-03T00:58:10.161Z,25.62
2022-08-03T01:00:43.833Z,25.61
2022-08-03T01:03:31.891Z,25.59
2022-08-03T01:06:14.628Z,25.51
2022-08-03T01:08:49.140Z,25.48
2022-08-03T01:12:00.682Z,25.46
2022-08-03T01:14:38.039Z,25.45
2022-08-03T01:17:35.593Z,25.47
2022-08-03T01:20:09.900Z,25.44
2022-08-03T01:23:01.796Z,25.44
2022-08-03T01:25:35.579Z,25.42
2022-08-03T01:28:31.419Z,25.39
2022-08-03T01:32:57.983Z,25.36
2022-08-03T01:35:08.641Z,25.28
2022-08-03T01:37:41.872Z,25.23
2022-08-03T01:40:26.396Z,25.20
2022-08-03T01:44:28.398Z,25.18
2022-08-03T01:46:05.924Z,25.15
2022-08-03T01:48:35.730Z,25.14
2022-08-03T01:51:04.846Z,25.13
2022-08-03T01:53:37.253Z,25.11
2022-08-03T01:56:09.674Z,25.09
2022-08-03T01:58:40.469Z,25.06
2022-08-03T02:01:10.602Z,24.99
2022-08-03T02:03:59.599Z,24.93
2022-08-03T02:07:00.668Z,24.88
2022-08-03T02:10:04.953Z,24.82
2022-08-03T02:12:53.757Z,24.77
2022-08-03T02:15:27.269Z,24.75
2022-08-03T02:17:57.524Z,24.73
2022-08-03T02:20:50.823Z,24.67
2022-08-03T02:26:06.547Z,24.60
2022-08-03T02:28:38.581Z,24.56
2022-08-03T02:31:13.426Z,24.50
2022-08-03T02:33:45.254Z,24.46
2022-08-03T02:36:15.649Z,24.43
2022-08-03T02:38:45.515Z,24.33
2022-08-03T02:41:20.234Z,24.26
2022-08-03T02:44:17.655Z,24.20
2022-08-03T02:46:50.278Z,24.13
2022-08-03T02:49:50.962Z,24.09
2022-08-03T02:52:27.154Z,24.01
2022-08-03T02:55:06.765Z,23.96
2022-08-03T02:57:37.261Z,23.92
2022-08-03T03:00:07.261Z,23.88
2022-08-03T03:02:39.135Z,23.83
2022-08-03T03:05:52.241Z,23.79
2022-08-03T03:08:03.389Z,23.74
2022-08-03T03:10:46.810Z,23.70
2022-08-03T03:13:19.422Z,23.70
2022-08-03T03:15:48.795Z,23.69
2022-08-03T03:18:22.587Z,23.69
2022-08-03T03:20:54.633Z,23.63
2022-08-03T03:23:24.990Z,23.54
2022-08-03T03:25:57.206Z,23.44
2022-08-03T03:28:32.960Z,23.40
2022-08-03T03:31:03.078Z,23.32
2022-08-03T03:33:32.187Z,23.26
2022-08-03T03:36:19.901Z,23.23
2022-08-03T03:38:48.178Z,23.18
2022-08-03T03:41:18.265Z,23.14
2022-08-03T03:43:51.681Z,23.10
2022-08-03T03:46:24.457Z,23.04
2022-08-03T03:48:52.942Z,22.97
2022-08-03T03:51:21.726Z,22.92
2022-08-03T03:54:01.069Z,22.86
2022-08-03T03:56:33.844Z,22.80
2022-08-03T03:59:04.088Z,22.74
2022-08-03T04:01:33.471Z,22.70
2022-08-03T04:04:21.951Z,22.67
2022-08-03T04:07:08.872Z,22.60
2022-08-03T04:09:58.118Z,22.56
2022-08-03T04:12:35.577Z,22.54
2022-08-03T04:15:05.470Z,22.51
2022-08-03T04:17:37.294Z,22.45
2022-08-03T04:20:13.657Z,22.41
2022-08-03T04:22:43.259Z,22.35
2022-08-03T04:28:21.011Z,22.23
2022-08-03T04:30:54.894Z,22.17
2022-08-03T04:33:26.073Z,22.10
2022-08-03T04:36:20.999Z,22.08
2022-08-03T04:39:08.840Z,22.09
2022-08-03T04:42:02.195Z,22.12
2022-08-03T04:44:28.435Z,22.11
2022-08-03T04:46:59.377Z,22.08
2022-08-03T04:49:30.558Z,22.07
2022-08-03T04:51:59.596Z,22.04
2022-08-03T04:54:28.389Z,22.02
2022-08-03T04:56:56.995Z,22.01
2022-08-03T04:59:25.355Z,22.02
2022-08-03T05:01:54.135Z,21.99
2022-08-03T05:04:28.709Z,21.91
2022-08-03T05:06:57.590Z,21.83
2022-08-03T05:09:45.097Z,21.73
2022-08-03T05:12:19.472Z,21.61
2022-08-03T05:14:47.692Z,21.52
2022-08-03T05:17:16.494Z,21.47
2022-08-03T05:19:44.716Z,21.41
2022-08-03T05:22:12.988Z,21.36
2022-08-03T05:24:41.271Z,21.31
2022-08-03T05:27:10.113Z,21.23
2022-08-03T05:29:38.635Z,21.16
2022-08-03T05:32:10.200Z,21.13
2022-08-03T05:34:38.937Z,21.07
2022-08-03T05:37:08.342Z,21.04
2022-08-03T05:39:38.945Z,21.00
2022-08-03T05:42:09.645Z,20.97
2022-08-03T05:44:39.630Z,20.94
2022-08-03T05:47:07.887Z,20.91
2022-08-03T05:49:36.638Z,20.89
2022-08-03T05:52:13.796Z,20.90
2022-08-03T05:54:55.932Z,20.86
2022-08-03T05:57:27.640Z,20.86
2022-08-03T05:59:58.607Z,20.82
2022-08-03T06:02:30.002Z,20.75
2022-08-03T06:05:00.478Z,20.67
2022-08-03T06:07:29.364Z,20.59
2022-08-03T06:10:35.775Z,20.57
2022-08-03T06:12:48.678Z,20.53
2022-08-03T06:15:17.848Z,20.53
2022-08-03T06:17:53.244Z,20.54
2022-08-03T06:20:27.287Z,20.50
2022-08-03T06:23:00.398Z,20.44
2022-08-03T06:25:30.148Z,20.41
2022-08-03T06:28:00.847Z,20.41
2022-08-03T06:30:29.505Z,20.39
2022-08-03T06:32:58.078Z,20.36
2022-08-03T06:35:28.772Z,20.30
2022-08-03T06:37:58.013Z,20.24
2022-08-03T06:40:35.532Z,20.14
2022-08-03T06:43:06.115Z,20.08
2022-08-03T06:45:40.238Z,20.02
2022-08-03T06:48:10.853Z,19.99
2022-08-03T06:50:42.615Z,19.97
2022-08-03T06:53:21.291Z,19.97
2022-08-03T06:55:54.924Z,19.96
2022-08-03T06:58:24.287Z,19.92
2022-08-03T07:00:52.585Z,19.90
2022-08-03T07:03:21.525Z,19.87
2022-08-03T07:05:51.023Z,19.84
2022-08-03T07:08:20.036Z,19.81
2022-08-03T07:11:02.873Z,19.79
2022-08-03T07:13:33.116Z,19.76
2022-08-03T07:16:01.695Z,19.74
2022-08-03T07:18:30.512Z,19.71
2022-08-03T07:21:00.814Z,19.64
2022-08-03T07:23:29.454Z,19.58
2022-08-03T07:25:57.854Z,19.52
2022-08-03T07:28:26.738Z,19.49
2022-08-03T07:30:54.952Z,19.47
2022-08-03T07:33:24.055Z,19.46
2022-08-03T07:35:52.262Z,19.42
2022-08-03T07:38:21.198Z,19.39
2022-08-03T07:40:50.133Z,19.34
2022-08-03T07:43:18.556Z,19.29
2022-08-03T07:45:46.768Z,19.27
2022-08-03T07:48:15.035Z,19.25
2022-08-03T07:50:43.302Z,19.24
2022-08-03T07:53:11.602Z,19.25
2022-08-03T07:55:43.000Z,19.26
2022-08-03T07:58:19.207Z,19.23
2022-08-03T08:00:51.901Z,19.20
2022-08-03T08:03:20.729Z,19.19
2022-08-03T08:05:49.525Z,19.15
2022-08-03T08:08:17.939Z,19.13
2022-08-03T08:10:58.534Z,19.13
2022-08-03T08:13:27.620Z,19.10
2022-08-03T08:15:55.814Z,19.09
2022-08-03T08:18:25.061Z,19.08
2022-08-03T08:20:53.556Z,19.12
2022-08-03T08:23:44.187Z,19.12
2022-08-03T08:26:13.912Z,19.08
2022-08-03T08:28:45.419Z,19.09
2022-08-03T08:31:13.640Z,19.04
2022-08-03T08:34:03.298Z,19.00
2022-08-03T08:36:30.569Z,18.92
2022-08-03T08:38:58.819Z,18.86
2022-08-03T08:41:32.164Z,18.80
2022-08-03T08:44:01.229Z,18.78
2022-08-03T08:46:33.968Z,18.72
2022-08-03T08:49:04.810Z,18.64
2022-08-03T08:51:50.563Z,18.61
2022-08-03T08:54:29.257Z,18.55
2022-08-03T08:57:03.161Z,18.47
2022-08-03T08:59:48.346Z,18.44
2022-08-03T09:02:18.123Z,18.35
2022-08-03T09:04:50.412Z,18.34
2022-08-03T09:07:20.368Z,18.32
2022-08-03T09:10:10.188Z,18.30
2022-08-03T09:12:42.583Z,18.25
2022-08-03T09:15:26.501Z,18.28
2022-08-03T09:17:57.556Z,18.29
2022-08-03T09:20:28.002Z,18.35
2022-08-03T09:23:51.606Z,18.42
2022-08-03T09:26:02.575Z,18.40
2022-08-03T09:28:56.577Z,18.39
2022-08-03T09:32:00.364Z,18.40
2022-08-03T09:34:32.018Z,18.38
2022-08-03T09:37:00.338Z,18.38
2022-08-03T09:39:42.204Z,18.41
2022-08-03T09:42:23.563Z,18.41
2022-08-03T09:44:53.484Z,18.37
2022-08-03T09:47:37.383Z,18.39
2022-08-03T09:50:13.868Z,18.34
2022-08-03T09:52:49.792Z,18.33
2022-08-03T09:56:34.218Z,18.28
2022-08-03T09:58:13.595Z,18.28
2022-08-03T10:01:00.663Z,18.30
2022-08-03T10:03:31.966Z,18.26
2022-08-03T10:06:00.540Z,18.31
2022-08-03T10:08:29.443Z,18.34
2022-08-03T10:10:59.647Z,18.35
2022-08-03T10:13:29.014Z,18.28
2022-08-03T10:16:23.238Z,18.25
2022-08-03T10:18:46.011Z,18.20
2022-08-03T10:21:18.198Z,18.18
2022-08-03T10:23:48.050Z,18.15
2022-08-03T10:26:23.948Z,18.14
2022-08-03T10:28:57.317Z,18.11
2022-08-03T10:31:26.134Z,18.09
2022-08-03T10:33:58.604Z,18.10
2022-08-03T10:36:31.760Z,18.10
2022-08-03T10:39:01.974Z,18.07
2022-08-03T10:41:37.348Z,18.06
2022-08-03T10:44:12.079Z,18.04
2022-08-03T10:46:44.948Z,18.01
2022-08-03T10:49:25.523Z,17.99
2022-08-03T10:52:13.758Z,17.96
2022-08-03T10:55:12.401Z,17.95
2022-08-03T10:57:58.446Z,17.95
2022-08-03T11:00:31.450Z,17.92
2022-08-03T11:03:09.756Z,17.96
2022-08-03T11:05:53.187Z,17.98
2022-08-03T11:08:25.797Z,18.01
2022-08-03T11:10:57.076Z,17.97
2022-08-03T11:13:29.072Z,17.94
2022-08-03T11:16:02.357Z,17.94
2022-08-03T11:18:36.363Z,17.93
2022-08-03T11:21:05.006Z,17.90
2022-08-03T11:24:04.286Z,17.90
2022-08-03T11:26:35.401Z,17.85
2022-08-03T11:29:30.597Z,17.83
2022-08-03T11:31:58.885Z,17.77
2022-08-03T11:34:27.669Z,17.74
2022-08-03T11:37:32.865Z,17.73
2022-08-03T11:40:02.814Z,17.66
2022-08-03T11:42:37.532Z,17.62
2022-08-03T11:45:09.405Z,17.58
2022-08-03T11:47:51.022Z,17.55
2022-08-03T11:50:20.769Z,17.53
2022-08-03T11:52:50.386Z,17.55
2022-08-03T11:55:22.553Z,17.54
2022-08-03T11:59:10.743Z,17.54
2022-08-03T12:00:40.512Z,17.54
2022-08-03T12:03:12.771Z,17.53
2022-08-03T12:05:51.964Z,17.53
2022-08-03T12:08:34.614Z,17.57
2022-08-03T12:11:07.556Z,17.57
2022-08-03T12:14:27.421Z,17.60
2022-08-03T12:16:49.520Z,17.60
2022-08-03T12:19:18.103Z,17.63
2022-08-03T12:21:57.326Z,17.63
2022-08-03T12:24:29.577Z,17.62
2022-08-03T12:27:00.800Z,17.62
2022-08-03T12:29:29.730Z,17.57
2022-08-03T12:32:18.316Z,17.55
2022-08-03T12:34:48.877Z,17.48
2022-08-03T12:37:23.200Z,17.42
2022-08-03T12:40:02.364Z,17.38
2022-08-03T12:42:36.153Z,17.36
2022-08-03T12:45:24.446Z,17.36
2022-08-03T12:48:02.918Z,17.34
2022-08-03T12:58:17.125Z,17.28
2022-08-03T14:25:49.955Z,17.38
2022-08-03T14:32:08.994Z,17.64
2022-08-03T14:34:20.871Z,17.73
2022-08-03T14:37:10.623Z,17.84
2022-08-03T14:42:30.330Z,17.89
2022-08-03T14:45:02.609Z,17.87
2022-08-03T14:47:34.341Z,17.84
2022-08-03T14:50:38.230Z,17.84
2022-08-03T14:53:09.248Z,17.85
2022-08-03T14:55:38.602Z,17.88
2022-08-03T14:58:20.702Z,17.93
2022-08-03T15:00:51.303Z,17.97
2022-08-03T15:03:25.403Z,17.93
2022-08-03T15:06:00.931Z,17.93
2022-08-03T15:08:29.794Z,17.88
2022-08-03T15:11:01.251Z,17.88
2022-08-03T15:13:33.131Z,17.88
2022-08-03T15:16:03.744Z,17.84
2022-08-03T15:18:31.986Z,17.79
2022-08-03T15:21:01.209Z,17.74
2022-08-03T15:23:29.627Z,17.71
2022-08-03T15:26:30.292Z,17.74
2022-08-03T15:28:58.298Z,17.74
2022-08-03T15:31:27.643Z,17.78
2022-08-03T15:33:56.045Z,17.85
2022-08-03T15:36:24.480Z,17.96
2022-08-03T15:38:53.952Z,18.05
2022-08-03T15:41:22.357Z,18.16
2022-08-03T15:43:53.772Z,18.34
2022-08-03T15:46:32.946Z,18.45
2022-08-03T15:49:01.343Z,18.51
2022-08-03T15:51:31.865Z,18.67
2022-08-03T15:54:05.813Z,18.84
2022-08-03T15:56:38.650Z,18.94
2022-08-03T15:59:12.324Z,19.00
2022-08-03T16:01:42.534Z,19.10
2022-08-03T16:11:39.794Z,19.46
2022-08-03T16:14:30.759Z,19.55
2022-08-03T16:17:10.182Z,19.65
2022-08-03T16:19:42.194Z,19.79
2022-08-03T16:25:13.865Z,19.96
2022-08-03T16:28:00.245Z,20.02
2022-08-03T16:30:39.558Z,20.15
2022-08-03T16:33:08.112Z,20.29
2022-08-03T16:35:36.575Z,20.40
2022-08-03T16:38:13.190Z,20.58
2022-08-03T16:40:54.301Z,20.74
2022-08-03T16:43:36.083Z,20.83
2022-08-03T16:46:10.653Z,21.02
2022-08-03T16:48:39.620Z,21.05
2022-08-03T16:51:07.960Z,20.91
2022-08-03T16:54:05.286Z,20.78
2022-08-03T16:56:27.592Z,20.73
2022-08-03T16:58:58.129Z,20.79
2022-08-03T17:01:37.639Z,20.86
2022-08-03T17:04:11.880Z,20.84
2022-08-03T17:06:45.172Z,20.88
2022-08-03T17:09:21.839Z,21.04
2022-08-03T17:11:52.105Z,21.19
2022-08-03T17:14:28.553Z,21.34
2022-08-03T17:17:04.124Z,21.55
2022-08-03T17:19:39.017Z,21.51
2022-08-03T17:22:12.078Z,21.35
2022-08-03T17:24:53.819Z,21.19
2022-08-03T17:28:51.234Z,21.02
2022-08-03T17:30:39.480Z,20.86
2022-08-03T17:33:20.243Z,20.87
2022-08-03T17:35:53.642Z,20.91
2022-08-03T17:38:31.856Z,20.94
2022-08-03T17:41:10.637Z,20.95
2022-08-03T17:44:12.761Z,21.04
2022-08-03T17:46:39.283Z,21.14
2022-08-03T17:49:24.954Z,21.14
2022-08-03T17:52:03.076Z,21.18
2022-08-03T17:55:57.042Z,21.20
2022-08-03T17:58:12.976Z,21.23
2022-08-03T18:01:59.545Z,21.22
2022-08-03T18:04:10.915Z,21.17
2022-08-03T18:06:56.238Z,21.14
2022-08-03T18:10:04.168Z,21.17
2022-08-03T18:12:41.341Z,21.33
2022-08-03T18:15:22.322Z,21.42
2022-08-03T18:17:55.479Z,21.47
2022-08-03T18:20:51.125Z,21.49
2022-08-03T18:23:45.669Z,21.48
2022-08-03T18:26:43.448Z,21.51
2022-08-03T18:32:16.931Z,21.65
2022-08-03T18:38:46.827Z,21.82
2022-08-03T18:41:46.968Z,21.90
2022-08-03T18:47:51.755Z,22.11
2022-08-03T18:54:02.364Z,22.31
2022-08-03T18:56:50.487Z,22.41
2022-08-03T19:02:51.629Z,22.60
2022-08-03T19:06:02.293Z,22.66
2022-08-03T19:09:44.887Z,22.73
2022-08-03T19:12:44.549Z,22.85
2022-08-03T19:15:36.018Z,22.97
2022-08-03T19:18:44.163Z,23.00
2022-08-03T19:21:17.576Z,23.08
2022-08-03T19:23:56.242Z,23.18
2022-08-03T19:26:51.292Z,23.25
2022-08-03T19:29:59.560Z,23.28
2022-08-03T19:32:32.172Z,23.33
2022-08-03T19:41:42.815Z,23.54
2022-08-03T19:44:42.909Z,23.68
2022-08-03T19:47:44.772Z,23.78
2022-08-03T19:50:50.995Z,24.01
2022-08-03T19:54:16.718Z,24.56
2022-08-03T20:24:01.646Z,25.16
2022-08-03T20:27:22.436Z,25.04
2022-08-03T20:37:13.302Z,25.18
2022-08-03T20:46:29.640Z,25.23
2022-08-03T20:49:25.214Z,25.31
2022-08-03T20:55:20.162Z,25.39
2022-08-03T20:57:51.817Z,25.47
2022-08-03T21:00:21.962Z,25.47
2022-08-03T21:03:15.893Z,25.48
2022-08-03T21:06:16.330Z,25.53
2022-08-03T21:09:21.392Z,25.55
2022-08-03T21:12:18.005Z,25.55
2022-08-03T21:18:51.709Z,25.57
2022-08-03T21:22:27.898Z,25.58
2022-08-03T21:24:19.072Z,25.52
2022-08-03T21:26:59.436Z,25.52
2022-08-03T21:29:57.483Z,25.49
2022-08-03T21:32:45.004Z,25.46
2022-08-03T21:35:20.944Z,25.46
2022-08-03T21:38:29.657Z,25.45
2022-08-03T21:41:02.577Z,25.43
2022-08-03T21:47:19.293Z,25.41
2022-08-03T21:50:16.741Z,25.48
2022-08-03T21:56:43.762Z,25.40
2022-08-03T21:59:20.036Z,25.43
2022-08-03T22:02:22.665Z,25.49
2022-08-03T22:05:08.298Z,25.49
2022-08-03T22:07:47.574Z,25.56
2022-08-03T22:10:18.338Z,25.73
2022-08-03T22:12:51.418Z,25.86
2022-08-03T22:15:19.925Z,25.89
2022-08-03T22:18:01.359Z,25.91
2022-08-03T22:20:40.575Z,25.89
2022-08-03T22:23:19.574Z,25.80
2022-08-03T22:25:53.147Z,25.80
2022-08-03T22:28:28.560Z,25.78
2022-08-03T22:31:00.476Z,25.79
2022-08-03T22:33:51.130Z,25.88
2022-08-03T22:36:19.738Z,25.98
2022-08-03T22:38:52.726Z,26.03
2022-08-03T22:41:23.478Z,26.03
2022-08-03T22:44:08.067Z,25.98
2022-08-03T22:46:44.335Z,25.88
2022-08-03T22:49:15.576Z,25.84
2022-08-03T22:51:48.618Z,25.79
2022-08-03T22:54:17.937Z,25.74
2022-08-03T22:56:48.271Z,25.70
2022-08-03T22:59:41.042Z,25.66
2022-08-03T23:02:23.270Z,25.64
2022-08-03T23:06:02.023Z,25.65
2022-08-03T23:08:13.106Z,25.54
2022-08-03T23:10:53.378Z,25.36
2022-08-03T23:13:26.657Z,25.23
2022-08-03T23:16:09.690Z,25.14
2022-08-03T23:18:49.452Z,25.09
2022-08-03T23:22:00.313Z,25.06
2022-08-03T23:24:29.414Z,25.04
2022-08-03T23:27:03.759Z,25.05
2022-08-03T23:29:42.751Z,25.06
2022-08-03T23:32:16.665Z,25.09
2022-08-03T23:35:04.900Z,25.07
2022-08-03T23:38:04.471Z,25.08
2022-08-03T23:40:33.712Z,25.16
2022-08-03T23:46:56.542Z,25.49
2022-08-03T23:49:24.793Z,25.61
2022-08-03T23:52:03.395Z,25.74
2022-08-03T23:55:19.437Z,25.84
2022-08-03T23:58:20.653Z,25.85
